Time,TemperatureF,DewpointF,PressureIn,WindDirection,WindDirectionDegrees,WindSpeedMPH,WindSpeedGustMPH,Humidity,HourlyPrecipIn,Conditions,Clouds,dailyrainin,SoftwareType,DateUTC
2013-03-11 00:12:00,32.6,32.0,29.82,NNW,344,8.0,13.0,97,0.00,,,0.19,weatherlink.com 1.10,2013-03-11 05:12:00,
2013-03-11 00:27:00,32.6,32.0,29.82,NNW,345,9.0,13.0,97,0.00,,,0.19,weatherlink.com 1.10,2013-03-11 05:27:00,
2013-03-11 00:42:00,32.6,32.0,29.82,NW,325,6.0,14.0,97,0.00,,,0.19,weatherlink.com 1.10,2013-03-11 05:42:00,
2013-03-11 00:57:00,32.4,32.0,29.82,NNW,333,10.0,16.0,97,0.00,,,0.19,weatherlink.com 1.10,2013-03-11 05:57:00,
2013-03-11 01:12:00,32.3,32.0,29.81,NNW,333,8.0,12.0,97,0.00,,,0.19,weatherlink.com 1.10,2013-03-11 06:12:00,
2013-03-11 01:27:00,32.2,32.0,29.81,NNW,333,8.0,13.0,97,0.00,,,0.19,weatherlink.com 1.10,2013-03-11 06:27:00,
2013-03-11 01:42:00,32.1,31.0,29.81,NNW,333,5.0,10.0,97,0.00,,,0.19,weatherlink.com 1.10,2013-03-11 06:42:00,
2013-03-11 01:57:00,32.0,31.0,29.81,NNW,333,9.0,12.0,97,0.00,,,0.19,weatherlink.com 1.10,2013-03-11 06:57:00,
2013-03-11 02:12:00,31.9,31.0,29.81,NNW,333,11.0,13.0,97,0.00,,,0.19,weatherlink.com 1.10,2013-03-11 07:12:00,
2013-03-11 02:27:00,31.7,31.0,29.81,NNW,333,10.0,13.0,97,0.00,,,0.19,weatherlink.com 1.10,2013-03-11 07:27:00,
2013-03-11 02:42:00,31.5,31.0,29.81,NNW,333,6.0,14.0,97,0.00,,,0.19,weatherlink.com 1.10,2013-03-11 07:42:00,
2013-03-11 02:57:00,-999.0,-99.9,29.80,North,-999,-999.0,-999.0,-999,0.00,,,0.19,weatherlink.com 1.10,2013-03-11 07:57:00,
2013-03-11 03:13:00,-999.0,-99.9,29.79,North,-999,-999.0,-999.0,-999,0.00,,,0.19,weatherlink.com 1.10,2013-03-11 08:13:00,
2013-03-11 03:28:00,30.8,30.0,29.79,NNW,333,6.0,12.0,97,0.00,,,0.19,weatherlink.com 1.10,2013-03-11 08:28:00,
2013-03-11 03:43:00,30.7,30.0,29.79,NNW,333,7.0,10.0,97,0.00,,,0.19,weatherlink.com 1.10,2013-03-11 08:43:00,
2013-03-11 03:58:00,30.7,30.0,29.78,NNW,333,8.0,11.0,97,0.00,,,0.19,weatherlink.com 1.10,2013-03-11 08:58:00,
2013-03-11 04:13:00,30.6,30.0,29.78,NNW,333,4.0,12.0,96,0.00,,,0.19,weatherlink.com 1.10,2013-03-11 09:13:00,
2013-03-11 04:28:00,30.6,30.0,29.77,NNW,333,5.0,12.0,97,0.00,,,0.19,weatherlink.com 1.10,2013-03-11 09:28:00,
2013-03-11 04:43:00,30.5,30.0,29.77,NNW,333,3.0,9.0,97,0.00,,,0.19,weatherlink.com 1.10,2013-03-11 09:43:00,
2013-03-11 04:58:00,30.5,30.0,29.77,NNW,333,5.0,13.0,97,0.00,,,0.19,weatherlink.com 1.10,2013-03-11 09:58:00,
2013-03-11 05:13:00,30.4,29.0,29.77,NNW,333,8.0,10.0,96,0.00,,,0.19,weatherlink.com 1.10,2013-03-11 10:13:00,
2013-03-11 05:28:00,30.3,29.0,29.77,NNW,333,4.0,11.0,96,0.01,,,0.20,weatherlink.com 1.10,2013-03-11 10:28:00,
2013-03-11 05:43:00,30.3,29.0,29.78,NNW,333,1.0,12.0,96,0.01,,,0.20,weatherlink.com 1.10,2013-03-11 10:43:00,
2013-03-11 05:58:00,30.2,29.0,29.78,NNW,333,7.0,11.0,96,0.01,,,0.00,weatherlink.com 1.10,2013-03-11 10:58:00,
2013-03-11 06:13:00,30.2,29.0,29.78,NNW,333,7.0,10.0,96,0.01,,,0.00,weatherlink.com 1.10,2013-03-11 11:13:00,
2013-03-11 06:28:00,30.1,29.0,29.78,NNW,333,7.0,11.0,96,0.00,,,0.00,weatherlink.com 1.10,2013-03-11 11:28:00,
2013-03-11 06:43:00,30.1,29.0,29.78,NNW,333,4.0,9.0,96,0.00,,,0.00,weatherlink.com 1.10,2013-03-11 11:43:00,
2013-03-11 06:58:00,30.0,29.0,29.79,NNW,333,6.0,13.0,96,0.00,,,0.00,weatherlink.com 1.10,2013-03-11 11:58:00,
2013-03-11 07:13:00,30.0,29.0,29.79,NNW,333,7.0,13.0,96,0.00,,,0.00,weatherlink.com 1.10,2013-03-11 12:13:00,
2013-03-11 07:28:00,30.1,29.0,29.79,NNW,333,8.0,9.0,96,0.00,,,0.00,weatherlink.com 1.10,2013-03-11 12:28:00,
2013-03-11 07:43:00,30.1,29.0,29.79,NNW,333,4.0,10.0,96,0.00,,,0.00,weatherlink.com 1.10,2013-03-11 12:43:00,
2013-03-11 07:58:00,30.2,29.0,29.80,NNW,333,4.0,9.0,95,0.00,,,0.00,weatherlink.com 1.10,2013-03-11 12:58:00,
2013-03-11 08:13:00,30.3,29.0,29.80,NNW,333,5.0,10.0,95,0.00,,,0.00,weatherlink.com 1.10,2013-03-11 13:13:00,
2013-03-11 08:28:00,30.3,29.0,29.80,NNW,333,4.0,9.0,95,0.00,,,0.00,weatherlink.com 1.10,2013-03-11 13:28:00,
2013-03-11 08:43:00,30.3,29.0,29.79,NNW,333,8.0,8.0,95,0.00,,,0.00,weatherlink.com 1.10,2013-03-11 13:43:00,
2013-03-11 08:58:00,30.3,29.0,29.79,NNW,333,5.0,9.0,95,0.00,,,0.00,weatherlink.com 1.10,2013-03-11 13:58:00,
2013-03-11 09:13:00,30.3,29.0,29.79,NNW,333,4.0,8.0,95,0.00,,,0.00,weatherlink.com 1.10,2013-03-11 14:13:00,
2013-03-11 09:28:00,30.4,29.0,29.79,NNW,333,6.0,9.0,94,0.00,,,0.00,weatherlink.com 1.10,2013-03-11 14:28:00,
2013-03-11 09:43:00,30.5,29.0,29.78,NNW,333,6.0,9.0,94,0.00,,,0.00,weatherlink.com 1.10,2013-03-11 14:43:00,
2013-03-11 09:58:00,30.5,29.0,29.77,NNW,333,6.0,11.0,94,0.00,,,0.00,weatherlink.com 1.10,2013-03-11 14:58:00,
2013-03-11 10:13:00,30.6,29.0,29.77,NNW,333,6.0,9.0,94,0.00,,,0.00,weatherlink.com 1.10,2013-03-11 15:13:00,
2013-03-11 10:28:00,30.6,29.0,29.77,NNW,333,6.0,12.0,94,0.00,,,0.00,weatherlink.com 1.10,2013-03-11 15:28:00,
2013-03-11 10:43:00,30.6,29.0,29.77,NNW,333,3.0,14.0,94,0.00,,,0.00,weatherlink.com 1.10,2013-03-11 15:43:00,
2013-03-11 10:58:00,30.5,29.0,29.77,NNW,333,4.0,12.0,94,0.00,,,0.00,weatherlink.com 1.10,2013-03-11 15:58:00,
2013-03-11 11:13:00,30.5,29.0,29.77,NNW,333,6.0,13.0,94,0.00,,,0.00,weatherlink.com 1.10,2013-03-11 16:13:00,
2013-03-11 11:28:00,30.6,29.0,29.77,NNW,333,6.0,13.0,94,0.00,,,0.00,weatherlink.com 1.10,2013-03-11 16:28:00,
2013-03-11 11:43:00,30.8,29.0,29.77,NNW,333,7.0,12.0,94,0.00,,,0.00,weatherlink.com 1.10,2013-03-11 16:43:00,
2013-03-11 11:58:00,30.8,29.0,29.77,NNW,333,4.0,11.0,94,0.00,,,0.00,weatherlink.com 1.10,2013-03-11 16:58:00,
2013-03-11 12:13:00,30.9,30.0,29.77,WNW,288,5.0,13.0,95,0.00,,,0.00,weatherlink.com 1.10,2013-03-11 17:13:00,
2013-03-11 12:28:00,30.9,30.0,29.77,West,269,6.0,12.0,95,0.00,,,0.00,weatherlink.com 1.10,2013-03-11 17:28:00,
2013-03-11 12:43:00,31.1,30.0,29.76,NW,306,9.0,12.0,95,0.00,,,0.00,weatherlink.com 1.10,2013-03-11 17:43:00,
2013-03-11 12:58:00,31.2,30.0,29.76,NW,319,5.0,12.0,95,0.00,,,0.00,weatherlink.com 1.10,2013-03-11 17:58:00,
2013-03-11 13:13:00,31.2,30.0,29.76,NW,304,5.0,13.0,94,0.00,,,0.00,weatherlink.com 1.10,2013-03-11 18:13:00,
2013-03-11 13:28:00,31.4,30.0,29.76,North,11,5.0,14.0,94,0.00,,,0.00,weatherlink.com 1.10,2013-03-11 18:28:00,
2013-03-11 13:43:00,31.5,30.0,29.76,WNW,299,9.0,12.0,94,0.00,,,0.00,weatherlink.com 1.10,2013-03-11 18:43:00,
2013-03-11 13:58:00,31.5,30.0,29.76,West,275,6.0,14.0,93,0.00,,,0.00,weatherlink.com 1.10,2013-03-11 18:58:00,
2013-03-11 14:14:00,31.6,30.0,29.76,WNW,288,7.0,12.0,93,0.00,,,0.00,weatherlink.com 1.10,2013-03-11 19:14:00,
2013-03-11 14:29:00,31.8,30.0,29.76,WSW,247,5.0,12.0,93,0.00,,,0.00,weatherlink.com 1.10,2013-03-11 19:29:00,
2013-03-11 14:44:00,31.8,30.0,29.76,NW,312,7.0,13.0,93,0.00,,,0.00,weatherlink.com 1.10,2013-03-11 19:44:00,
2013-03-11 14:59:00,32.0,31.0,29.76,NW,304,8.0,9.0,94,0.00,,,0.00,weatherlink.com 1.10,2013-03-11 19:59:00,
2013-03-11 15:14:00,32.1,31.0,29.77,NW,313,5.0,8.0,94,0.00,,,0.00,weatherlink.com 1.10,2013-03-11 20:14:00,
2013-03-11 15:29:00,32.0,31.0,29.77,West,263,7.0,10.0,94,0.00,,,0.00,weatherlink.com 1.10,2013-03-11 20:29:00,
2013-03-11 15:44:00,32.0,30.0,29.78,WNW,285,5.0,10.0,92,0.00,,,0.00,weatherlink.com 1.10,2013-03-11 20:44:00,
2013-03-11 15:59:00,32.1,30.0,29.78,WNW,288,6.0,9.0,90,0.00,,,0.00,weatherlink.com 1.10,2013-03-11 20:59:00,
2013-03-11 16:14:00,32.3,30.0,29.78,West,276,5.0,8.0,90,0.00,,,0.00,weatherlink.com 1.10,2013-03-11 21:14:00,
2013-03-11 16:29:00,32.3,30.0,29.78,WNW,286,4.0,11.0,89,0.00,,,0.00,weatherlink.com 1.10,2013-03-11 21:29:00,
2013-03-11 16:44:00,32.1,29.0,29.79,West,271,5.0,10.0,89,0.00,,,0.00,weatherlink.com 1.10,2013-03-11 21:44:00,
2013-03-11 16:59:00,31.9,29.0,29.79,WNW,297,7.0,8.0,89,0.00,,,0.00,weatherlink.com 1.10,2013-03-11 21:59:00,
2013-03-11 17:14:00,31.7,29.0,29.79,West,275,6.0,8.0,89,0.00,,,0.00,weatherlink.com 1.10,2013-03-11 22:14:00,
2013-03-11 17:29:00,31.6,29.0,29.80,WNW,302,5.0,10.0,88,0.00,,,0.00,weatherlink.com 1.10,2013-03-11 22:29:00,
2013-03-11 17:43:00,31.1,28.0,29.80,West,270,5.0,11.0,89,0.00,,,0.00,weatherlink.com 1.10,2013-03-11 22:43:00,
2013-03-11 17:59:00,30.9,28.0,29.81,West,275,6.0,9.0,89,0.00,,,0.00,weatherlink.com 1.10,2013-03-11 22:59:00,
2013-03-11 18:14:00,30.8,28.0,29.82,West,273,7.0,10.0,89,0.00,,,0.00,weatherlink.com 1.10,2013-03-11 23:14:00,
2013-03-11 18:29:00,30.8,28.0,29.82,WNW,283,6.0,9.0,89,0.00,,,0.00,weatherlink.com 1.10,2013-03-11 23:29:00,
2013-03-11 18:44:00,30.8,28.0,29.83,West,277,5.0,8.0,89,0.00,,,0.00,weatherlink.com 1.10,2013-03-11 23:44:00,
2013-03-11 18:59:00,30.7,28.0,29.84,WNW,286,2.0,8.0,89,0.00,,,0.00,weatherlink.com 1.10,2013-03-11 23:59:00,
2013-03-11 19:14:00,30.7,28.0,29.84,WNW,287,3.0,7.0,89,0.00,,,0.00,weatherlink.com 1.10,2013-03-12 00:14:00,
2013-03-11 19:29:00,30.7,28.0,29.85,WNW,291,4.0,7.0,89,0.00,,,0.00,weatherlink.com 1.10,2013-03-12 00:29:00,
2013-03-11 19:44:00,30.7,28.0,29.85,West,263,4.0,8.0,89,0.00,,,0.00,weatherlink.com 1.10,2013-03-12 00:44:00,
2013-03-11 19:59:00,30.7,28.0,29.86,West,271,5.0,9.0,89,0.00,,,0.00,weatherlink.com 1.10,2013-03-12 00:59:00,
2013-03-11 20:14:00,30.6,28.0,29.87,West,268,5.0,8.0,88,0.00,,,0.00,weatherlink.com 1.10,2013-03-12 01:14:00,
2013-03-11 20:29:00,30.6,28.0,29.87,West,270,4.0,7.0,88,0.00,,,0.00,weatherlink.com 1.10,2013-03-12 01:29:00,
2013-03-11 20:44:00,30.5,27.0,29.88,WNW,300,1.0,8.0,87,0.00,,,0.00,weatherlink.com 1.10,2013-03-12 01:44:00,
2013-03-11 20:59:00,30.4,27.0,29.88,WNW,291,5.0,9.0,87,0.00,,,0.00,weatherlink.com 1.10,2013-03-12 01:59:00,
2013-03-11 21:14:00,30.4,27.0,29.89,West,269,6.0,7.0,87,0.00,,,0.00,weatherlink.com 1.10,2013-03-12 02:14:00,
2013-03-11 21:29:00,30.2,27.0,29.89,West,269,6.0,7.0,87,0.00,,,0.00,weatherlink.com 1.10,2013-03-12 02:29:00,
2013-03-11 21:44:00,30.1,26.0,29.90,SW,236,1.0,8.0,86,0.00,,,0.00,weatherlink.com 1.10,2013-03-12 02:44:00,
2013-03-11 21:59:00,30.1,27.0,29.91,West,278,0.0,6.0,87,0.00,,,0.00,weatherlink.com 1.10,2013-03-12 02:59:00,
2013-03-11 22:14:00,29.9,26.0,29.91,WNW,284,4.0,10.0,86,0.00,,,0.00,weatherlink.com 1.10,2013-03-12 03:14:00,
2013-03-11 22:29:00,29.8,26.0,29.92,SSW,196,6.0,9.0,86,0.00,,,0.00,weatherlink.com 1.10,2013-03-12 03:29:00,
2013-03-11 22:44:00,29.7,26.0,29.92,West,269,2.0,7.0,86,0.00,,,0.00,weatherlink.com 1.10,2013-03-12 03:44:00,
2013-03-11 22:59:00,29.7,26.0,29.92,West,267,7.0,8.0,86,0.00,,,0.00,weatherlink.com 1.10,2013-03-12 03:59:00,
2013-03-11 23:14:00,29.6,26.0,29.93,WSW,257,5.0,7.0,86,0.00,,,0.00,weatherlink.com 1.10,2013-03-12 04:14:00,
2013-03-11 23:30:00,-999.0,-99.9,29.93,North,-999,-999.0,-999.0,-999,0.00,,,0.00,weatherlink.com 1.10,2013-03-12 04:30:00,
2013-03-11 23:45:00,29.4,26.0,29.93,WSW,252,5.0,8.0,86,0.00,,,0.00,weatherlink.com 1.10,2013-03-12 04:45:00,